sensor_id;sensor_type;location;lat;lon;timestamp;pressure;altitude;pressure_sealevel;temperature;humidity
57086;BME280;42964;42.910;23.792;2023-08-06T00:01:07;96493.50;;;22.41;54.15
57086;BME280;42964;42.910;23.792;2023-08-06T00:06:06;96491.06;;;22.63;53.91
57086;BME280;42964;42.910;23.792;2023-08-06T00:11:05;96523.44;;;22.54;54.18
57086;BME280;42964;42.910;23.792;2023-08-06T00:16:13;96542.69;;;22.56;54.01
57086;BME280;42964;42.910;23.792;2023-08-06T00:21:12;96496.34;;;22.50;54.76
57086;BME280;42964;42.910;23.792;2023-08-06T00:26:11;96549.75;;;22.43;56.87
57086;BME280;42964;42.910;23.792;2023-08-06T00:31:10;96469.59;;;22.04;58.67
57086;BME280;42964;42.910;23.792;2023-08-06T00:36:09;96471.81;;;21.70;60.54
57086;BME280;42964;42.910;23.792;2023-08-06T00:41:08;96497.91;;;21.47;63.13
57086;BME280;42964;42.910;23.792;2023-08-06T00:46:07;96484.22;;;21.28;67.32
57086;BME280;42964;42.910;23.792;2023-08-06T00:51:06;96475.13;;;21.05;68.51
57086;BME280;42964;42.910;23.792;2023-08-06T00:56:07;96493.22;;;20.97;68.60
57086;BME280;42964;42.910;23.792;2023-08-06T01:01:07;96497.00;;;20.92;70.12
57086;BME280;42964;42.910;23.792;2023-08-06T01:06:05;96488.59;;;21.00;72.36
57086;BME280;42964;42.910;23.792;2023-08-06T01:11:15;96460.00;;;20.65;74.54
57086;BME280;42964;42.910;23.792;2023-08-06T01:16:20;96445.50;;;20.58;73.11
57086;BME280;42964;42.910;23.792;2023-08-06T01:21:19;96450.41;;;20.36;74.64
57086;BME280;42964;42.910;23.792;2023-08-06T01:26:35;96406.25;;;20.25;75.65
57086;BME280;42964;42.910;23.792;2023-08-06T01:31:41;96414.47;;;20.49;75.35
57086;BME280;42964;42.910;23.792;2023-08-06T01:36:42;96425.41;;;20.43;75.79
57086;BME280;42964;42.910;23.792;2023-08-06T01:41:41;96418.03;;;20.34;76.64
57086;BME280;42964;42.910;23.792;2023-08-06T01:46:40;96402.78;;;20.39;77.79
57086;BME280;42964;42.910;23.792;2023-08-06T01:51:39;96394.81;;;20.40;77.74
57086;BME280;42964;42.910;23.792;2023-08-06T01:56:38;96390.41;;;20.41;78.53
57086;BME280;42964;42.910;23.792;2023-08-06T02:01:37;96393.59;;;20.46;79.20
57086;BME280;42964;42.910;23.792;2023-08-06T02:06:36;96385.75;;;20.44;80.17
57086;BME280;42964;42.910;23.792;2023-08-06T02:11:35;96395.09;;;20.50;80.87
57086;BME280;42964;42.910;23.792;2023-08-06T02:16:33;96383.72;;;20.49;81.05
57086;BME280;42964;42.910;23.792;2023-08-06T02:21:32;96381.06;;;20.49;80.94
57086;BME280;42964;42.910;23.792;2023-08-06T02:26:31;96385.09;;;20.55;81.14
57086;BME280;42964;42.910;23.792;2023-08-06T02:31:31;96384.34;;;20.53;81.14
57086;BME280;42964;42.910;23.792;2023-08-06T02:36:30;96381.72;;;20.53;81.06
57086;BME280;42964;42.910;23.792;2023-08-06T02:41:28;96385.28;;;20.38;83.12
57086;BME280;42964;42.910;23.792;2023-08-06T02:46:27;96389.56;;;20.40;83.55
57086;BME280;42964;42.910;23.792;2023-08-06T02:51:26;96393.03;;;20.41;83.37
57086;BME280;42964;42.910;23.792;2023-08-06T02:56:25;96387.91;;;20.23;84.54
57086;BME280;42964;42.910;23.792;2023-08-06T03:01:25;96390.47;;;20.11;85.93
57086;BME280;42964;42.910;23.792;2023-08-06T03:06:25;96402.94;;;19.93;87.15
57086;BME280;42964;42.910;23.792;2023-08-06T03:11:24;96401.47;;;19.89;86.83
57086;BME280;42964;42.910;23.792;2023-08-06T03:16:23;96402.66;;;19.97;86.62
57086;BME280;42964;42.910;23.792;2023-08-06T03:21:22;96380.75;;;19.82;86.74
57086;BME280;42964;42.910;23.792;2023-08-06T03:26:21;96362.13;;;19.85;86.44
57086;BME280;42964;42.910;23.792;2023-08-06T03:31:20;96383.13;;;20.16;85.88
57086;BME280;42964;42.910;23.792;2023-08-06T03:36:19;96396.41;;;20.14;86.22
57086;BME280;42964;42.910;23.792;2023-08-06T03:41:17;96435.44;;;20.36;85.44
57086;BME280;42964;42.910;23.792;2023-08-06T03:46:16;96418.59;;;20.39;84.37
57086;BME280;42964;42.910;23.792;2023-08-06T03:51:15;96417.28;;;20.03;85.67
57086;BME280;42964;42.910;23.792;2023-08-06T03:56:14;96409.41;;;19.73;88.16
57086;BME280;42964;42.910;23.792;2023-08-06T04:01:13;96371.06;;;19.69;87.78
57086;BME280;42964;42.910;23.792;2023-08-06T04:06:12;96420.59;;;19.76;88.00
57086;BME280;42964;42.910;23.792;2023-08-06T04:11:11;96534.19;;;19.84;89.49
57086;BME280;42964;42.910;23.792;2023-08-06T04:16:11;96439.22;;;19.73;94.07
57086;BME280;42964;42.910;23.792;2023-08-06T04:21:12;96370.22;;;19.22;95.14
57086;BME280;42964;42.910;23.792;2023-08-06T04:26:10;96396.66;;;18.73;96.10
57086;BME280;42964;42.910;23.792;2023-08-06T04:31:09;96368.59;;;18.57;96.59
57086;BME280;42964;42.910;23.792;2023-08-06T04:36:08;96409.34;;;18.49;97.26
57086;BME280;42964;42.910;23.792;2023-08-06T04:41:07;96413.75;;;18.48;97.63
57086;BME280;42964;42.910;23.792;2023-08-06T04:46:06;96400.53;;;18.50;97.84
57086;BME280;42964;42.910;23.792;2023-08-06T04:51:05;96368.75;;;18.54;97.61
57086;BME280;42964;42.910;23.792;2023-08-06T04:56:04;96363.25;;;18.59;97.63
57086;BME280;42964;42.910;23.792;2023-08-06T05:01:03;96325.19;;;18.66;97.66
57086;BME280;42964;42.910;23.792;2023-08-06T05:06:02;96324.97;;;18.71;98.03
57086;BME280;42964;42.910;23.792;2023-08-06T05:11:01;96319.69;;;18.55;98.10
57086;BME280;42964;42.910;23.792;2023-08-06T05:16:00;96363.91;;;18.94;98.54
57086;BME280;42964;42.910;23.792;2023-08-06T05:20:59;96367.97;;;19.16;97.30
57086;BME280;42964;42.910;23.792;2023-08-06T05:25:58;96384.38;;;18.89;96.01
57086;BME280;42964;42.910;23.792;2023-08-06T05:30:57;96354.09;;;18.66;97.30
57086;BME280;42964;42.910;23.792;2023-08-06T05:35:56;96352.47;;;18.64;96.72
57086;BME280;42964;42.910;23.792;2023-08-06T05:40:55;96345.09;;;18.54;97.95
57086;BME280;42964;42.910;23.792;2023-08-06T05:45:55;96340.06;;;18.83;96.25
57086;BME280;42964;42.910;23.792;2023-08-06T05:50:55;96270.72;;;18.38;95.83
57086;BME280;42964;42.910;23.792;2023-08-06T05:55:54;96357.75;;;18.95;95.72
57086;BME280;42964;42.910;23.792;2023-08-06T06:00:52;96389.16;;;19.13;95.14
57086;BME280;42964;42.910;23.792;2023-08-06T06:05:51;96393.66;;;19.27;94.22
57086;BME280;42964;42.910;23.792;2023-08-06T06:10:50;96400.97;;;19.52;94.39
57086;BME280;42964;42.910;23.792;2023-08-06T06:15:49;96395.03;;;19.93;94.74
57086;BME280;42964;42.910;23.792;2023-08-06T06:20:48;96383.59;;;20.22;93.34
57086;BME280;42964;42.910;23.792;2023-08-06T06:25:50;96402.78;;;20.67;92.04
57086;BME280;42964;42.910;23.792;2023-08-06T06:30:51;96371.09;;;20.82;89.06
57086;BME280;42964;42.910;23.792;2023-08-06T06:35:50;96416.09;;;21.34;86.93
57086;BME280;42964;42.910;23.792;2023-08-06T06:40:55;96428.53;;;21.32;85.32
57086;BME280;42964;42.910;23.792;2023-08-06T07:21:52;96431.78;;;22.16;79.61
57086;BME280;42964;42.910;23.792;2023-08-06T07:26:51;96429.00;;;22.56;79.99
57086;BME280;42964;42.910;23.792;2023-08-06T07:31:51;96422.47;;;22.98;78.87
57086;BME280;42964;42.910;23.792;2023-08-06T07:36:50;96418.97;;;23.46;76.84
57086;BME280;42964;42.910;23.792;2023-08-06T07:41:49;96425.63;;;23.76;72.61
57086;BME280;42964;42.910;23.792;2023-08-06T07:46:48;96420.47;;;23.85;71.53
57086;BME280;42964;42.910;23.792;2023-08-06T07:51:47;96416.53;;;23.91;71.97
57086;BME280;42964;42.910;23.792;2023-08-06T07:56:46;96416.38;;;23.81;72.42
57086;BME280;42964;42.910;23.792;2023-08-06T08:01:45;96407.75;;;23.55;70.26
57086;BME280;42964;42.910;23.792;2023-08-06T08:06:44;96411.38;;;23.54;70.10
57086;BME280;42964;42.910;23.792;2023-08-06T08:11:42;96405.63;;;23.72;71.73
57086;BME280;42964;42.910;23.792;2023-08-06T08:16:41;96403.03;;;23.94;71.56
57086;BME280;42964;42.910;23.792;2023-08-06T08:21:40;96406.44;;;23.96;70.07
57086;BME280;42964;42.910;23.792;2023-08-06T08:26:39;96407.41;;;24.06;68.69
57086;BME280;42964;42.910;23.792;2023-08-06T08:31:38;96398.38;;;24.09;64.97
57086;BME280;42964;42.910;23.792;2023-08-06T08:36:38;96401.63;;;24.13;64.90
57086;BME280;42964;42.910;23.792;2023-08-06T08:41:37;96397.63;;;24.07;62.96
57086;BME280;42964;42.910;23.792;2023-08-06T08:46:39;96393.31;;;24.17;61.94
57086;BME280;42964;42.910;23.792;2023-08-06T08:51:39;96387.91;;;24.08;61.17
57086;BME280;42964;42.910;23.792;2023-08-06T08:56:38;96382.63;;;24.30;62.62
57086;BME280;42964;42.910;23.792;2023-08-06T09:01:39;96375.34;;;23.98;63.74
57086;BME280;42964;42.910;23.792;2023-08-06T09:06:40;96378.94;;;23.75;64.22
57086;BME280;42964;42.910;23.792;2023-08-06T09:11:43;96371.47;;;23.80;65.50
57086;BME280;42964;42.910;23.792;2023-08-06T09:16:43;96372.25;;;23.58;65.04
57086;BME280;42964;42.910;23.792;2023-08-06T09:21:42;96360.13;;;23.67;67.46
57086;BME280;42964;42.910;23.792;2023-08-06T09:26:44;96360.97;;;23.78;67.40
57086;BME280;42964;42.910;23.792;2023-08-06T09:31:52;96363.72;;;23.77;66.96
57086;BME280;42964;42.910;23.792;2023-08-06T09:36:53;96365.78;;;23.38;66.56
57086;BME280;42964;42.910;23.792;2023-08-06T09:41:56;96371.19;;;23.72;66.04
57086;BME280;42964;42.910;23.792;2023-08-06T09:46:56;96376.53;;;23.83;62.23
57086;BME280;42964;42.910;23.792;2023-08-06T09:51:56;96391.03;;;24.13;64.25
57086;BME280;42964;42.910;23.792;2023-08-06T09:56:57;96393.00;;;24.22;63.29
57086;BME280;42964;42.910;23.792;2023-08-06T10:01:56;96410.03;;;24.06;64.06
57086;BME280;42964;42.910;23.792;2023-08-06T10:06:55;96399.25;;;24.21;64.07
57086;BME280;42964;42.910;23.792;2023-08-06T10:11:56;96407.34;;;24.53;63.29
57086;BME280;42964;42.910;23.792;2023-08-06T10:16:57;96398.03;;;24.59;62.05
57086;BME280;42964;42.910;23.792;2023-08-06T10:22:15;96402.16;;;24.97;59.62
57086;BME280;42964;42.910;23.792;2023-08-06T10:27:19;96404.38;;;25.56;57.30
57086;BME280;42964;42.910;23.792;2023-08-06T10:32:19;96408.50;;;25.49;55.11
57086;BME280;42964;42.910;23.792;2023-08-06T10:37:18;96416.47;;;25.60;56.45
57086;BME280;42964;42.910;23.792;2023-08-06T10:42:30;96432.28;;;25.07;57.99
57086;BME280;42964;42.910;23.792;2023-08-06T10:47:28;96444.84;;;24.71;58.79
57086;BME280;42964;42.910;23.792;2023-08-06T10:52:27;96444.38;;;24.55;60.26
57086;BME280;42964;42.910;23.792;2023-08-06T10:57:26;96445.69;;;24.60;59.74
57086;BME280;42964;42.910;23.792;2023-08-06T11:02:25;96441.59;;;24.90;57.62
57086;BME280;42964;42.910;23.792;2023-08-06T11:07:24;96448.31;;;25.05;56.10
57086;BME280;42964;42.910;23.792;2023-08-06T11:12:27;96444.25;;;25.45;55.20
57086;BME280;42964;42.910;23.792;2023-08-06T11:17:28;96443.22;;;25.68;53.71
57086;BME280;42964;42.910;23.792;2023-08-06T11:22:28;96446.03;;;25.88;53.01
57086;BME280;42964;42.910;23.792;2023-08-06T11:27:27;96450.00;;;25.61;53.72
57086;BME280;42964;42.910;23.792;2023-08-06T11:32:27;96431.78;;;25.13;53.84
57086;BME280;42964;42.910;23.792;2023-08-06T11:37:26;96452.78;;;25.05;55.53
57086;BME280;42964;42.910;23.792;2023-08-06T11:42:25;96467.97;;;24.58;60.34
57086;BME280;42964;42.910;23.792;2023-08-06T11:47:24;96466.69;;;24.17;61.60
57086;BME280;42964;42.910;23.792;2023-08-06T11:52:24;96462.31;;;24.51;58.84
57086;BME280;42964;42.910;23.792;2023-08-06T11:57:24;96466.75;;;24.84;57.74
57086;BME280;42964;42.910;23.792;2023-08-06T12:02:23;96463.88;;;25.10;56.94
57086;BME280;42964;42.910;23.792;2023-08-06T12:07:26;96447.06;;;25.32;56.66
57086;BME280;42964;42.910;23.792;2023-08-06T12:12:26;96447.81;;;25.66;54.54
57086;BME280;42964;42.910;23.792;2023-08-06T12:17:25;96453.75;;;25.91;53.92
57086;BME280;42964;42.910;23.792;2023-08-06T12:22:24;96433.13;;;25.51;50.58
57086;BME280;42964;42.910;23.792;2023-08-06T12:27:23;96449.78;;;26.06;49.58
57086;BME280;42964;42.910;23.792;2023-08-06T12:32:22;96452.72;;;27.07;49.06
57086;BME280;42964;42.910;23.792;2023-08-06T12:37:21;96440.34;;;27.56;47.26
57086;BME280;42964;42.910;23.792;2023-08-06T12:42:20;96429.66;;;27.36;49.63
57086;BME280;42964;42.910;23.792;2023-08-06T12:47:19;96439.69;;;26.73;51.81
57086;BME280;42964;42.910;23.792;2023-08-06T12:52:18;96434.03;;;26.87;51.56
57086;BME280;42964;42.910;23.792;2023-08-06T12:57:18;96417.59;;;26.82;51.79
57086;BME280;42964;42.910;23.792;2023-08-06T13:02:17;96431.38;;;26.14;52.23
57086;BME280;42964;42.910;23.792;2023-08-06T13:07:16;96442.69;;;26.28;51.96
57086;BME280;42964;42.910;23.792;2023-08-06T13:12:15;96439.16;;;26.48;52.14
57086;BME280;42964;42.910;23.792;2023-08-06T13:17:14;96433.44;;;27.34;50.50
57086;BME280;42964;42.910;23.792;2023-08-06T13:22:13;96436.59;;;27.08;46.94
57086;BME280;42964;42.910;23.792;2023-08-06T13:27:12;96435.63;;;26.78;48.76
57086;BME280;42964;42.910;23.792;2023-08-06T13:32:10;96432.78;;;26.61;52.11
57086;BME280;42964;42.910;23.792;2023-08-06T13:37:09;96449.78;;;26.06;53.01
57086;BME280;42964;42.910;23.792;2023-08-06T13:42:09;96437.44;;;25.63;54.06
57086;BME280;42964;42.910;23.792;2023-08-06T13:47:08;96452.03;;;25.90;53.92
57086;BME280;42964;42.910;23.792;2023-08-06T13:52:07;96455.44;;;26.13;51.81
57086;BME280;42964;42.910;23.792;2023-08-06T13:57:06;96457.19;;;26.45;51.38
57086;BME280;42964;42.910;23.792;2023-08-06T14:02:05;96428.75;;;26.76;49.53
57086;BME280;42964;42.910;23.792;2023-08-06T14:07:04;96437.34;;;27.39;48.79
57086;BME280;42964;42.910;23.792;2023-08-06T14:12:04;96428.94;;;27.25;46.82
57086;BME280;42964;42.910;23.792;2023-08-06T14:17:04;96430.59;;;27.16;47.40
57086;BME280;42964;42.910;23.792;2023-08-06T14:22:03;96425.16;;;27.37;46.95
57086;BME280;42964;42.910;23.792;2023-08-06T14:27:02;96422.03;;;27.03;47.72
57086;BME280;42964;42.910;23.792;2023-08-06T14:32:02;96411.41;;;27.32;47.75
57086;BME280;42964;42.910;23.792;2023-08-06T14:37:02;96414.81;;;27.53;47.47
57086;BME280;42964;42.910;23.792;2023-08-06T14:42:01;96424.66;;;27.92;46.28
57086;BME280;42964;42.910;23.792;2023-08-06T14:47:00;96417.06;;;27.77;46.46
57086;BME280;42964;42.910;23.792;2023-08-06T14:51:59;96421.78;;;27.25;46.95
57086;BME280;42964;42.910;23.792;2023-08-06T14:57:00;96414.44;;;26.98;47.79
57086;BME280;42964;42.910;23.792;2023-08-06T15:01:59;96407.28;;;26.98;47.46
57086;BME280;42964;42.910;23.792;2023-08-06T15:06:58;96406.06;;;27.03;48.21
57086;BME280;42964;42.910;23.792;2023-08-06T15:11:57;96415.31;;;27.28;47.83
57086;BME280;42964;42.910;23.792;2023-08-06T15:16:56;96383.66;;;27.44;46.72
57086;BME280;42964;42.910;23.792;2023-08-06T15:21:55;96395.00;;;27.27;46.08
57086;BME280;42964;42.910;23.792;2023-08-06T15:26:54;96349.50;;;26.79;46.39
57086;BME280;42964;42.910;23.792;2023-08-06T15:31:53;96389.78;;;27.06;46.61
57086;BME280;42964;42.910;23.792;2023-08-06T15:36:52;96399.06;;;27.21;47.13
57086;BME280;42964;42.910;23.792;2023-08-06T15:41:53;96397.66;;;27.17;46.62
57086;BME280;42964;42.910;23.792;2023-08-06T15:46:52;96403.97;;;27.16;47.20
57086;BME280;42964;42.910;23.792;2023-08-06T15:51:51;96404.75;;;26.97;47.04
57086;BME280;42964;42.910;23.792;2023-08-06T15:56:51;96413.22;;;26.81;47.56
57086;BME280;42964;42.910;23.792;2023-08-06T16:01:50;96414.41;;;26.88;48.35
57086;BME280;42964;42.910;23.792;2023-08-06T16:06:49;96436.00;;;26.64;47.85
57086;BME280;42964;42.910;23.792;2023-08-06T16:11:49;96449.69;;;26.29;48.67
57086;BME280;42964;42.910;23.792;2023-08-06T16:16:49;96444.41;;;25.97;49.51
57086;BME280;42964;42.910;23.792;2023-08-06T16:21:48;96466.44;;;25.87;49.83
57086;BME280;42964;42.910;23.792;2023-08-06T16:26:47;96461.38;;;25.84;50.47
57086;BME280;42964;42.910;23.792;2023-08-06T16:31:48;96460.56;;;25.84;51.00
57086;BME280;42964;42.910;23.792;2023-08-06T16:36:47;96453.34;;;25.74;51.92
57086;BME280;42964;42.910;23.792;2023-08-06T16:41:46;96386.34;;;25.39;51.17
57086;BME280;42964;42.910;23.792;2023-08-06T16:46:45;96467.00;;;25.70;52.82
57086;BME280;42964;42.910;23.792;2023-08-06T16:51:44;96474.16;;;25.69;53.07
57086;BME280;42964;42.910;23.792;2023-08-06T16:56:43;96471.94;;;25.74;53.43
57086;BME280;42964;42.910;23.792;2023-08-06T17:01:42;96478.69;;;25.79;52.99
57086;BME280;42964;42.910;23.792;2023-08-06T17:06:41;96482.03;;;25.81;52.73
57086;BME280;42964;42.910;23.792;2023-08-06T17:11:40;96492.81;;;25.79;52.40
57086;BME280;42964;42.910;23.792;2023-08-06T17:16:39;96497.53;;;25.76;53.17
57086;BME280;42964;42.910;23.792;2023-08-06T17:21:38;96493.63;;;25.59;53.38
57086;BME280;42964;42.910;23.792;2023-08-06T17:26:38;96476.72;;;25.48;53.29
57086;BME280;42964;42.910;23.792;2023-08-06T17:31:36;96496.53;;;25.33;54.13
57086;BME280;42964;42.910;23.792;2023-08-06T17:36:35;96481.25;;;24.92;55.75
57086;BME280;42964;42.910;23.792;2023-08-06T17:41:34;96526.47;;;24.79;57.43
57086;BME280;42964;42.910;23.792;2023-08-06T17:46:33;96521.50;;;24.63;59.16
57086;BME280;42964;42.910;23.792;2023-08-06T17:51:32;96540.06;;;24.52;61.07
57086;BME280;42964;42.910;23.792;2023-08-06T17:56:31;96564.50;;;24.44;62.17
57086;BME280;42964;42.910;23.792;2023-08-06T18:01:30;96563.78;;;24.42;63.14
57086;BME280;42964;42.910;23.792;2023-08-06T18:06:29;96574.50;;;24.29;63.91
57086;BME280;42964;42.910;23.792;2023-08-06T18:11:28;96598.66;;;24.00;66.47
57086;BME280;42964;42.910;23.792;2023-08-06T18:16:27;96588.91;;;23.27;69.50
57086;BME280;42964;42.910;23.792;2023-08-06T18:21:27;96628.31;;;23.19;71.23
57086;BME280;42964;42.910;23.792;2023-08-06T18:26:26;96649.38;;;22.82;72.42
57086;BME280;42964;42.910;23.792;2023-08-06T18:31:25;96646.34;;;22.61;73.18
57086;BME280;42964;42.910;23.792;2023-08-06T18:36:24;96603.91;;;22.37;72.43
57086;BME280;42964;42.910;23.792;2023-08-06T18:41:23;96655.78;;;22.65;71.93
57086;BME280;42964;42.910;23.792;2023-08-06T18:46:23;96652.16;;;22.53;69.59
57086;BME280;42964;42.910;23.792;2023-08-06T18:51:22;96650.00;;;22.46;68.98
57086;BME280;42964;42.910;23.792;2023-08-06T18:56:21;96642.19;;;22.44;68.10
57086;BME280;42964;42.910;23.792;2023-08-06T19:01:20;96638.34;;;22.35;68.32
57086;BME280;42964;42.910;23.792;2023-08-06T19:06:19;96654.91;;;22.25;68.79
57086;BME280;42964;42.910;23.792;2023-08-06T19:11:18;96669.38;;;22.19;69.25
57086;BME280;42964;42.910;23.792;2023-08-06T19:16:17;96675.72;;;22.16;70.50
57086;BME280;42964;42.910;23.792;2023-08-06T19:21:16;96674.41;;;22.09;70.29
57086;BME280;42964;42.910;23.792;2023-08-06T19:26:15;96668.59;;;22.04;72.13
57086;BME280;42964;42.910;23.792;2023-08-06T19:31:14;96683.94;;;21.97;73.81
57086;BME280;42964;42.910;23.792;2023-08-06T19:36:13;96692.91;;;21.95;74.02
57086;BME280;42964;42.910;23.792;2023-08-06T19:41:14;96709.97;;;21.89;74.59
57086;BME280;42964;42.910;23.792;2023-08-06T19:46:13;96723.59;;;21.83;73.38
57086;BME280;42964;42.910;23.792;2023-08-06T19:51:13;96730.56;;;21.70;71.26
57086;BME280;42964;42.910;23.792;2023-08-06T19:56:13;96748.88;;;21.44;75.68
57086;BME280;42964;42.910;23.792;2023-08-06T20:01:13;96754.72;;;21.49;75.01
57086;BME280;42964;42.910;23.792;2023-08-06T20:06:12;96771.03;;;21.56;76.13
57086;BME280;42964;42.910;23.792;2023-08-06T20:11:11;96778.19;;;21.09;79.04
57086;BME280;42964;42.910;23.792;2023-08-06T20:16:11;96844.41;;;20.89;80.36
57086;BME280;42964;42.910;23.792;2023-08-06T20:21:10;96826.19;;;20.54;77.72
57086;BME280;42964;42.910;23.792;2023-08-06T20:26:09;96783.47;;;20.32;75.31
57086;BME280;42964;42.910;23.792;2023-08-06T20:31:08;96845.63;;;20.67;72.64
57086;BME280;42964;42.910;23.792;2023-08-06T20:36:07;96862.91;;;20.73;72.79
57086;BME280;42964;42.910;23.792;2023-08-06T20:41:06;96877.97;;;20.87;72.08
57086;BME280;42964;42.910;23.792;2023-08-06T20:46:05;96872.31;;;20.93;71.55
57086;BME280;42964;42.910;23.792;2023-08-06T20:51:06;96863.13;;;20.84;70.55
57086;BME280;42964;42.910;23.792;2023-08-06T20:56:05;96882.34;;;21.02;70.79
57086;BME280;42964;42.910;23.792;2023-08-06T21:01:04;96883.69;;;21.09;71.12
57086;BME280;42964;42.910;23.792;2023-08-06T21:06:05;96887.88;;;21.13;71.65
57086;BME280;42964;42.910;23.792;2023-08-06T21:11:04;96885.88;;;21.17;72.58
57086;BME280;42964;42.910;23.792;2023-08-06T21:16:04;96877.56;;;21.09;71.76
57086;BME280;42964;42.910;23.792;2023-08-06T21:21:04;96867.09;;;21.07;65.65
57086;BME280;42964;42.910;23.792;2023-08-06T21:26:05;96864.06;;;20.99;61.71
57086;BME280;42964;42.910;23.792;2023-08-06T21:31:07;96867.63;;;20.98;58.13
57086;BME280;42964;42.910;23.792;2023-08-06T21:36:08;96872.66;;;21.03;56.56
57086;BME280;42964;42.910;23.792;2023-08-06T21:41:10;96873.66;;;21.00;55.89
57086;BME280;42964;42.910;23.792;2023-08-06T21:46:12;96864.84;;;21.01;55.11
57086;BME280;42964;42.910;23.792;2023-08-06T22:16:52;96890.03;;;20.10;55.80
57086;BME280;42964;42.910;23.792;2023-08-06T22:21:51;96886.44;;;20.11;55.44
57086;BME280;42964;42.910;23.792;2023-08-06T22:26:50;96877.28;;;20.18;54.77
57086;BME280;42964;42.910;23.792;2023-08-06T22:31:49;96881.03;;;20.30;54.22
57086;BME280;42964;42.910;23.792;2023-08-06T22:36:48;96897.63;;;20.32;54.00
57086;BME280;42964;42.910;23.792;2023-08-06T22:41:47;96914.28;;;20.33;53.59
57086;BME280;42964;42.910;23.792;2023-08-06T22:46:46;96926.84;;;20.27;53.20
57086;BME280;42964;42.910;23.792;2023-08-06T22:51:45;96941.44;;;20.17;53.34
57086;BME280;42964;42.910;23.792;2023-08-06T22:56:44;96944.63;;;20.06;54.02
57086;BME280;42964;42.910;23.792;2023-08-06T23:01:43;96925.00;;;19.96;54.95
57086;BME280;42964;42.910;23.792;2023-08-06T23:06:42;96940.41;;;19.86;55.38
57086;BME280;42964;42.910;23.792;2023-08-06T23:11:41;96942.44;;;19.64;55.39
57086;BME280;42964;42.910;23.792;2023-08-06T23:16:40;96964.88;;;19.71;56.07
57086;BME280;42964;42.910;23.792;2023-08-06T23:21:39;96957.19;;;19.49;56.63
57086;BME280;42964;42.910;23.792;2023-08-06T23:26:38;96952.59;;;19.53;56.22
57086;BME280;42964;42.910;23.792;2023-08-06T23:31:37;96956.00;;;19.37;56.96
57086;BME280;42964;42.910;23.792;2023-08-06T23:36:36;96971.63;;;19.40;56.35
57086;BME280;42964;42.910;23.792;2023-08-06T23:41:35;96973.38;;;19.22;56.79
57086;BME280;42964;42.910;23.792;2023-08-06T23:46:34;96969.56;;;19.11;57.21
57086;BME280;42964;42.910;23.792;2023-08-06T23:51:34;96974.03;;;19.09;58.46
57086;BME280;42964;42.910;23.792;2023-08-06T23:56:33;96966.59;;;18.99;59.04
